createdAt,value
2016-10-22T00:00:08.879Z,20.63
2016-10-22T00:01:19.217Z,20.67
2016-10-22T00:02:29.578Z,20.67
2016-10-22T00:03:39.933Z,20.67
2016-10-22T00:28:43.497Z,20.68
2016-10-22T00:29:53.845Z,20.64
2016-10-22T00:31:04.192Z,20.7
2016-10-22T00:32:14.538Z,20.67
2016-10-22T00:33:24.885Z,20.6
2016-10-22T00:34:35.237Z,20.67
2016-10-22T00:35:45.587Z,20.64
2016-10-22T00:36:55.946Z,20.66
2016-10-22T00:38:06.296Z,20.7
2016-10-22T00:39:16.651Z,20.73
2016-10-22T00:40:27.001Z,20.68
2016-10-22T00:41:37.356Z,20.66
2016-10-22T00:42:47.712Z,20.7
2016-10-22T00:43:58.072Z,20.67
2016-10-22T00:45:08.428Z,20.68
2016-10-22T00:46:18.787Z,20.67
2016-10-22T00:47:29.151Z,20.63
2016-10-22T00:48:39.506Z,20.7
2016-10-22T00:49:49.863Z,20.59
2016-10-22T00:51:00.220Z,20.73
2016-10-22T00:52:10.575Z,20.6
2016-10-22T00:53:20.938Z,20.58
2016-10-22T00:54:31.292Z,20.55
2016-10-22T00:55:41.647Z,20.67
2016-10-22T00:56:52.007Z,20.53
2016-10-22T00:58:02.360Z,20.53
2016-10-22T00:59:12.717Z,20.67
2016-10-22T01:00:23.076Z,20.63
2016-10-22T01:01:33.432Z,20.59
2016-10-22T01:02:43.786Z,20.66
2016-10-22T01:28:41.433Z,20.64
2016-10-22T01:29:51.826Z,20.53
2016-10-22T01:31:02.175Z,20.7
2016-10-22T01:32:12.524Z,20.6
2016-10-22T01:33:22.872Z,20.64
2016-10-22T01:34:33.222Z,20.68
2016-10-22T01:35:43.571Z,20.59
2016-10-22T01:36:53.924Z,20.6
2016-10-22T01:38:04.277Z,20.6
2016-10-22T01:39:14.627Z,20.63
2016-10-22T01:40:24.982Z,20.59
2016-10-22T01:41:35.339Z,20.67
2016-10-22T01:42:45.695Z,20.59
2016-10-22T01:43:56.062Z,20.59
2016-10-22T01:45:06.410Z,20.56
2016-10-22T01:46:16.763Z,20.67
2016-10-22T01:47:27.116Z,20.59
2016-10-22T01:48:37.477Z,20.56
2016-10-22T01:49:47.822Z,20.59
2016-10-22T01:50:58.191Z,20.63
2016-10-22T01:52:08.552Z,20.56
2016-10-22T01:53:18.902Z,20.66
2016-10-22T01:54:29.256Z,20.53
2016-10-22T01:55:39.612Z,20.59
2016-10-22T01:56:49.974Z,20.59
2016-10-22T01:58:00.324Z,20.55
2016-10-22T01:59:10.681Z,20.55
2016-10-22T02:28:31.669Z,20.56
2016-10-22T02:29:42.012Z,20.5
2016-10-22T02:30:52.360Z,20.52
2016-10-22T02:32:02.712Z,20.53
2016-10-22T02:33:13.061Z,20.52
2016-10-22T02:34:23.412Z,20.49
2016-10-22T02:35:33.763Z,20.53
2016-10-22T02:36:44.112Z,20.49
2016-10-22T02:37:54.465Z,20.53
2016-10-22T02:39:04.818Z,20.58
2016-10-22T02:40:15.170Z,20.5
2016-10-22T02:41:25.516Z,20.55
2016-10-22T02:42:35.873Z,20.55
2016-10-22T02:43:46.226Z,20.5
2016-10-22T02:44:56.581Z,20.5
2016-10-22T02:46:06.936Z,20.42
2016-10-22T02:47:17.295Z,20.46
2016-10-22T02:48:27.649Z,20.49
2016-10-22T02:49:38.004Z,20.5
2016-10-22T02:50:48.361Z,20.44
2016-10-22T03:28:44.027Z,20.55
2016-10-22T03:29:54.380Z,20.44
2016-10-22T03:31:04.727Z,20.42
2016-10-22T03:32:15.076Z,20.46
2016-10-22T03:33:25.424Z,20.46
2016-10-22T03:34:35.774Z,20.53
2016-10-22T03:35:46.124Z,20.46
2016-10-22T03:36:56.478Z,20.48
2016-10-22T03:38:06.829Z,20.44
2016-10-22T03:39:17.184Z,20.53
2016-10-22T03:40:27.538Z,20.46
2016-10-22T03:41:37.895Z,20.44
2016-10-22T03:42:48.248Z,20.5
2016-10-22T03:43:58.595Z,20.44
2016-10-22T03:45:08.945Z,20.39
2016-10-22T03:46:19.300Z,20.4
2016-10-22T03:47:29.655Z,20.42
2016-10-22T03:48:40.011Z,20.39
2016-10-22T03:49:50.364Z,20.42
2016-10-22T03:51:00.724Z,20.48
2016-10-22T03:52:11.080Z,20.46
2016-10-22T03:53:21.435Z,20.42
2016-10-22T03:54:31.791Z,20.46
2016-10-22T03:55:42.146Z,20.5
2016-10-22T03:56:52.503Z,20.42
2016-10-22T03:58:02.861Z,20.4
2016-10-22T03:59:13.206Z,20.49
2016-10-22T04:00:23.579Z,20.44
2016-10-22T04:28:53.633Z,20.59
2016-10-22T04:29:44.123Z,20.5
2016-10-22T04:30:54.469Z,20.6
2016-10-22T04:32:04.816Z,20.63
2016-10-22T04:33:15.166Z,20.63
2016-10-22T04:34:25.518Z,20.66
2016-10-22T04:35:35.869Z,20.58
2016-10-22T04:36:46.224Z,20.63
2016-10-22T04:37:56.578Z,20.56
2016-10-22T04:39:06.929Z,20.63
2016-10-22T04:40:17.285Z,20.67
2016-10-22T04:41:27.642Z,20.6
2016-10-22T04:42:37.994Z,20.52
2016-10-22T04:43:48.352Z,20.64
2016-10-22T04:44:58.706Z,20.59
2016-10-22T04:46:09.060Z,20.66
2016-10-22T04:47:19.421Z,20.59
2016-10-22T04:48:29.768Z,20.63
2016-10-22T04:49:40.122Z,20.59
2016-10-22T04:50:50.470Z,20.58
2016-10-22T04:52:00.832Z,20.63
2016-10-22T04:53:11.192Z,20.68
2016-10-22T04:54:21.549Z,20.64
2016-10-22T05:28:23.659Z,20.7
2016-10-22T05:29:34.008Z,20.5
2016-10-22T05:30:44.357Z,20.59
2016-10-22T05:31:54.707Z,20.5
2016-10-22T05:33:05.057Z,20.63
2016-10-22T05:34:15.404Z,20.64
2016-10-22T05:35:25.759Z,20.58
2016-10-22T05:36:36.116Z,20.67
2016-10-22T05:37:46.469Z,20.7
2016-10-22T05:38:56.823Z,20.68
2016-10-22T05:40:07.178Z,20.67
2016-10-22T05:41:17.531Z,20.67
2016-10-22T05:42:27.885Z,20.53
2016-10-22T05:43:38.239Z,20.74
2016-10-22T05:44:48.595Z,20.56
2016-10-22T06:28:18.168Z,20.71
2016-10-22T06:29:28.559Z,20.67
2016-10-22T06:30:38.906Z,20.63
2016-10-22T06:31:49.254Z,20.73
2016-10-22T06:32:59.603Z,20.66
2016-10-22T06:34:09.953Z,20.68
2016-10-22T06:35:20.305Z,20.67
2016-10-22T06:36:30.654Z,20.63
2016-10-22T06:37:41.005Z,20.78
2016-10-22T06:38:51.359Z,20.66
2016-10-22T06:40:01.710Z,20.7
2016-10-22T06:41:12.067Z,20.7
2016-10-22T06:42:22.420Z,20.67
2016-10-22T06:43:32.780Z,20.64
2016-10-22T06:44:43.134Z,20.66
2016-10-22T06:45:53.486Z,20.71
2016-10-22T06:47:03.840Z,20.64
2016-10-22T06:48:14.198Z,20.7
2016-10-22T06:49:24.552Z,20.7
2016-10-22T06:50:34.910Z,20.7
2016-10-22T06:51:45.264Z,20.66
2016-10-22T06:52:55.621Z,20.71
2016-10-22T06:54:05.980Z,20.7
2016-10-22T06:55:16.339Z,20.7
2016-10-22T06:56:26.697Z,20.64
2016-10-22T06:57:37.054Z,20.68
2016-10-22T06:58:47.411Z,20.67
2016-10-22T06:59:57.767Z,20.63
2016-10-22T07:01:08.128Z,20.6
2016-10-22T07:02:18.483Z,20.67
2016-10-22T07:03:28.829Z,20.7
2016-10-22T07:28:13.920Z,20.74
2016-10-22T07:29:24.273Z,20.7
2016-10-22T07:30:34.620Z,20.7
2016-10-22T07:31:44.963Z,20.71
2016-10-22T07:32:55.321Z,20.64
2016-10-22T07:34:05.680Z,20.67
2016-10-22T07:35:16.031Z,20.73
2016-10-22T07:36:26.381Z,20.67
2016-10-22T07:37:36.733Z,20.64
2016-10-22T07:38:47.081Z,20.68
2016-10-22T07:39:57.432Z,20.67
2016-10-22T07:41:07.796Z,20.63
2016-10-22T07:42:18.138Z,20.7
2016-10-22T07:43:28.768Z,20.71
2016-10-22T08:28:05.112Z,20.77
2016-10-22T08:29:15.456Z,20.74
2016-10-22T08:30:25.799Z,20.68
2016-10-22T08:31:36.150Z,20.75
2016-10-22T08:32:46.502Z,20.75
2016-10-22T08:33:56.852Z,20.73
2016-10-22T08:35:07.201Z,20.75
2016-10-22T08:36:17.555Z,20.75
2016-10-22T08:37:27.915Z,20.75
2016-10-22T08:38:38.268Z,20.71
2016-10-22T08:39:48.619Z,20.68
2016-10-22T09:28:03.332Z,20.58
2016-10-22T09:29:13.681Z,20.58
2016-10-22T09:30:24.032Z,20.63
2016-10-22T09:31:34.385Z,20.68
2016-10-22T09:32:44.724Z,20.56
2016-10-22T09:33:55.086Z,20.63
2016-10-22T09:35:05.435Z,20.67
2016-10-22T09:36:15.786Z,20.67
2016-10-22T09:37:26.135Z,20.63
2016-10-22T09:38:36.493Z,20.63
2016-10-22T09:39:46.853Z,20.68
2016-10-22T09:40:57.208Z,20.63
2016-10-22T09:42:07.571Z,20.58
2016-10-22T09:43:17.923Z,20.64
2016-10-22T09:44:28.285Z,20.58
2016-10-22T09:45:38.635Z,20.64
2016-10-22T09:46:48.992Z,20.73
2016-10-22T09:47:59.353Z,19.23
2016-10-22T09:49:09.714Z,18.11
2016-10-22T09:50:20.074Z,18.61
2016-10-22T09:51:30.426Z,19.09
2016-10-22T09:52:40.776Z,19.52
2016-10-22T09:53:51.139Z,19.64
2016-10-22T09:55:01.485Z,19.93
2016-10-22T09:56:11.840Z,20.11
2016-10-22T09:57:22.194Z,20.22
2016-10-22T10:28:04.034Z,20.64
2016-10-22T10:29:14.388Z,20.63
2016-10-22T10:30:24.737Z,20.58
2016-10-22T10:31:35.087Z,20.63
2016-10-22T10:32:45.436Z,20.63
2016-10-22T10:33:55.786Z,20.58
2016-10-22T10:35:06.136Z,20.55
2016-10-22T10:36:16.487Z,20.6
2016-10-22T10:37:26.840Z,20.66
2016-10-22T10:38:37.200Z,20.68
2016-10-22T10:39:47.554Z,20.66
2016-10-22T10:40:57.904Z,20.66
2016-10-22T10:42:08.265Z,20.68
2016-10-22T10:43:18.622Z,20.64
2016-10-22T11:27:43.517Z,20.73
2016-10-22T11:28:53.861Z,20.73
2016-10-22T12:28:10.937Z,20.77
2016-10-22T12:29:21.288Z,20.78
2016-10-22T12:30:31.636Z,20.77
2016-10-22T12:31:41.987Z,20.8
2016-10-22T12:32:52.331Z,20.82
2016-10-22T12:34:02.681Z,20.78
2016-10-22T12:35:13.037Z,20.8
2016-10-22T12:36:23.389Z,20.75
2016-10-22T12:37:33.738Z,20.78
2016-10-22T12:38:44.094Z,20.8
2016-10-22T12:39:54.447Z,20.78
2016-10-22T12:41:04.807Z,20.85
2016-10-22T12:42:15.163Z,20.82
2016-10-22T12:43:25.520Z,20.77
2016-10-22T12:44:35.869Z,20.85
2016-10-22T12:45:46.228Z,20.86
2016-10-22T12:46:56.582Z,20.82
2016-10-22T12:48:06.938Z,20.85
2016-10-22T13:28:13.481Z,20.82
2016-10-22T13:29:23.831Z,20.86
2016-10-22T13:30:34.180Z,20.85
2016-10-22T13:31:44.530Z,20.88
2016-10-22T13:32:54.877Z,20.89
2016-10-22T13:34:05.224Z,20.89
2016-10-22T13:35:15.577Z,20.85
2016-10-22T13:36:25.932Z,20.88
2016-10-22T13:37:36.339Z,20.78
2016-10-22T14:28:12.641Z,20.98
2016-10-22T14:29:22.980Z,20.96
2016-10-22T15:28:06.251Z,20.03
2016-10-22T15:29:16.597Z,20.07
2016-10-22T15:30:26.946Z,20.08
2016-10-22T16:28:07.253Z,20.71
2016-10-22T16:29:17.606Z,20.74
2016-10-22T16:30:27.956Z,20.75
2016-10-22T16:31:38.310Z,20.85
2016-10-22T16:32:48.673Z,20.86
2016-10-22T16:33:59.023Z,20.88
2016-10-22T16:35:09.377Z,20.86
2016-10-22T16:36:19.767Z,20.89
2016-10-22T16:37:30.143Z,20.85
2016-10-22T16:38:00.244Z,20.83
2016-10-22T16:39:10.585Z,20.96
2016-10-22T16:40:20.926Z,20.82
2016-10-22T16:41:31.290Z,20.89
2016-10-22T16:42:41.648Z,20.85
2016-10-22T16:43:52.004Z,20.89
2016-10-22T16:45:02.360Z,20.83
2016-10-22T16:46:12.715Z,20.85
2016-10-22T16:47:23.074Z,20.93
2016-10-22T16:48:33.432Z,20.93
2016-10-22T16:49:43.904Z,20.83
2016-10-22T16:50:54.261Z,20.88
2016-10-22T16:52:04.623Z,20.9
2016-10-22T16:53:14.979Z,20.88
2016-10-22T17:28:02.725Z,20.77
2016-10-22T17:29:13.073Z,20.75
2016-10-22T17:30:23.420Z,20.73
2016-10-22T17:31:33.762Z,20.7
2016-10-22T17:32:44.111Z,20.73
2016-10-22T17:33:54.465Z,20.78
2016-10-22T17:35:04.813Z,20.8
2016-10-22T17:36:15.170Z,20.83
2016-10-22T17:37:25.527Z,20.78
2016-10-22T18:28:26.478Z,20.88
2016-10-22T18:29:36.830Z,20.85
2016-10-22T18:30:47.179Z,20.85
2016-10-22T18:31:57.521Z,20.86
2016-10-22T18:33:07.871Z,20.88
2016-10-22T18:34:18.221Z,20.85
2016-10-22T18:35:28.572Z,20.86
2016-10-22T18:36:38.928Z,20.8
2016-10-22T18:37:49.284Z,20.89
2016-10-22T18:38:59.635Z,20.82
2016-10-22T18:40:09.992Z,20.82
2016-10-22T18:41:20.346Z,20.88
2016-10-22T18:42:30.700Z,20.86
2016-10-22T18:43:41.061Z,20.89
2016-10-22T18:44:51.412Z,20.86
2016-10-22T18:46:01.769Z,20.89
2016-10-22T18:47:12.127Z,20.89
2016-10-22T19:28:36.968Z,20.85
2016-10-22T19:29:47.337Z,20.86
2016-10-22T19:30:37.583Z,20.9
2016-10-22T19:31:47.929Z,20.88
2016-10-22T19:32:58.284Z,20.85
2016-10-22T19:34:08.637Z,20.86
2016-10-22T19:35:18.987Z,20.83
2016-10-22T19:36:29.341Z,20.92
2016-10-22T19:37:39.696Z,20.92
2016-10-22T19:38:50.046Z,20.89
2016-10-22T19:40:00.400Z,20.83
2016-10-22T19:41:10.754Z,20.86
2016-10-22T19:42:21.109Z,20.85
2016-10-22T19:43:31.454Z,20.86
2016-10-22T19:44:41.797Z,20.82
2016-10-22T19:45:52.154Z,20.85
2016-10-22T19:47:02.509Z,20.88
2016-10-22T19:48:12.869Z,20.86
2016-10-22T19:49:23.231Z,20.86
2016-10-22T19:50:33.588Z,20.85
2016-10-22T19:51:43.943Z,20.88
2016-10-22T19:52:54.300Z,20.83
2016-10-22T19:54:04.660Z,20.82
2016-10-22T19:55:15.030Z,20.78
2016-10-22T19:56:25.380Z,20.85
2016-10-22T19:57:35.741Z,20.88
2016-10-22T19:58:46.101Z,20.83
2016-10-22T19:59:56.459Z,20.88
2016-10-22T20:01:06.822Z,20.88
2016-10-22T20:02:17.180Z,20.86
2016-10-22T20:03:27.530Z,20.83
2016-10-22T20:28:41.070Z,20.92
2016-10-22T20:29:51.416Z,20.88
2016-10-22T20:31:01.766Z,20.83
2016-10-22T20:32:12.116Z,20.83
2016-10-22T20:33:22.469Z,20.82
2016-10-22T20:34:32.969Z,20.83
2016-10-22T20:35:02.944Z,20.86
2016-10-22T20:36:13.302Z,20.83
2016-10-22T20:37:23.657Z,20.83
2016-10-22T20:38:34.014Z,20.92
2016-10-22T20:39:44.367Z,20.88
2016-10-22T20:40:55.436Z,20.86
2016-10-22T21:28:42.034Z,20.95
2016-10-22T21:29:52.380Z,20.82
2016-10-22T21:31:02.729Z,20.88
2016-10-22T21:32:13.082Z,20.86
2016-10-22T21:33:23.428Z,20.96
2016-10-22T21:34:33.776Z,20.86
2016-10-22T21:35:44.135Z,20.88
2016-10-22T21:36:54.489Z,20.89
2016-10-22T21:38:04.844Z,20.86
2016-10-22T21:39:15.200Z,20.95
2016-10-22T21:40:25.555Z,20.89
2016-10-22T21:41:35.904Z,20.89
2016-10-22T21:42:46.260Z,20.9
2016-10-22T21:43:56.627Z,20.86
2016-10-22T21:45:06.980Z,20.85
2016-10-22T21:46:17.337Z,20.95
2016-10-22T21:47:27.700Z,20.85
2016-10-22T21:48:38.058Z,20.89
2016-10-22T21:49:48.407Z,20.85
2016-10-22T21:50:58.765Z,20.82
2016-10-22T21:52:09.116Z,20.86
2016-10-22T21:53:19.472Z,20.86
2016-10-22T22:28:40.906Z,20.86
2016-10-22T22:29:51.243Z,20.78
2016-10-22T22:31:01.592Z,20.85
2016-10-22T22:32:11.943Z,20.82
2016-10-22T22:33:22.291Z,20.88
2016-10-22T22:34:32.641Z,20.8
2016-10-22T22:35:42.988Z,20.83
2016-10-22T22:36:53.341Z,20.88
2016-10-22T22:38:03.697Z,20.83
2016-10-22T22:39:14.052Z,20.82
2016-10-22T22:40:24.404Z,20.86
2016-10-22T22:41:34.762Z,20.75
2016-10-22T22:42:45.119Z,20.83
2016-10-22T22:43:55.476Z,20.8
2016-10-22T22:45:05.830Z,20.86
2016-10-22T22:46:16.189Z,20.78
2016-10-22T22:47:26.545Z,20.77
2016-10-22T22:48:36.903Z,20.8
2016-10-22T22:49:47.259Z,20.74
2016-10-22T22:50:57.617Z,20.75
2016-10-22T22:52:07.986Z,20.78
2016-10-22T22:53:18.325Z,20.77
2016-10-22T22:54:28.680Z,20.74
2016-10-22T22:55:39.037Z,20.78
2016-10-22T22:56:49.391Z,20.78
2016-10-22T22:57:59.743Z,20.75
2016-10-22T22:59:10.103Z,20.78
2016-10-22T23:00:20.463Z,20.77
2016-10-22T23:01:30.819Z,20.8
2016-10-22T23:02:41.181Z,20.74
2016-10-22T23:03:51.537Z,20.75
2016-10-22T23:28:28.677Z,20.52
2016-10-22T23:29:39.036Z,20.53
2016-10-22T23:30:49.384Z,20.49
2016-10-22T23:31:59.734Z,20.5
2016-10-22T23:33:10.082Z,20.52
2016-10-22T23:34:20.437Z,20.49
2016-10-22T23:35:30.787Z,20.55
2016-10-22T23:36:41.142Z,20.55
2016-10-22T23:37:51.499Z,20.5
2016-10-22T23:39:01.839Z,20.53
2016-10-22T23:40:12.192Z,20.53
2016-10-22T23:41:22.547Z,20.44
2016-10-22T23:42:32.901Z,20.52
2016-10-22T23:43:43.259Z,20.52
